NEODyS-2

Near Earth Objects - Dynamic Site
NEODyS ∴ Observatories ∴ Site D19 ∴ Obs & residuals
Contact »
D19  ▹ 
OBSERVATIONS AND RESIDUALS

D19-Hong Kong Space Museum, Tsimshatsui

Detections | Residuals | Detections & Residuals

[1-28]

Designation T Tech N Date Right Ascension Declination Apparent Magnitude Star Catalog Site code χ Used A Used M
yr-mo-day precision hr:min:sec precision rms F bias residual deg min sec precision rms F bias residual mag/col rms residual
2012QG42 O C 2012-09-11.69490 1.000E-05 21:30:42.980 1.500E-01 1.000 F -0.023 0.219 +04° 47' 50.10" 1.000E-01 1.000 F 0.195 0.294 13.9 0.70 -1.02 o D19 0.37 Yes Yes
2012QG42 O C 2012-09-11.69657 1.000E-05 21:30:38.600 1.500E-01 1.000 F -0.023 -0.045 +04° 48' 16.10" 1.000E-01 1.000 F 0.195 0.186 13.8 0.70 -1.12 o D19 0.19 Yes Yes
2012QG42 O C 2012-09-11.72307 1.000E-05 21:29:29.270 1.500E-01 1.000 F -0.023 0.298 +04° 55' 11.50" 1.000E-01 1.000 F 0.195 0.007 13.5 0.70 -1.42 o D19 0.30 Yes Yes
2012QG42 O C 2012-09-12.57868 1.000E-05 20:48:10.880 1.500E-01 1.000 F 0.061 -0.984 +09° 09' 00.10" 1.000E-01 1.000 F 0.322 0.406 14.2 0.70 -0.74 o D19 1.07 Yes Yes
2012QG42 O C 2012-09-12.68701 1.000E-05 20:41:46.940 1.500E-01 1.000 F 0.079 0.798 +09° 44' 23.60" 1.000E-01 1.000 F 0.284 0.092 14.0 0.70 -0.95 o D19 0.80 Yes Yes
2012QG42 O C 2012-09-12.70638 1.000E-05 20:40:37.610 1.500E-01 1.000 F 0.079 0.457 +09° 50' 44.60" 1.000E-01 1.000 F 0.284 0.409 14.4 0.70 -0.56 o D19 0.61 Yes Yes
2012QE50 O C 2012-09-15.81410 1.000E-05 00:53:10.600 1.500E-01 1.000 F -0.224 0.589 +30° 07' 02.50" 1.000E-01 1.000 F 0.197 -0.096 16.3 0.70 -1.39 o D19 0.60 Yes Yes
2012QE50 O C 2012-09-15.82848 1.000E-05 00:53:14.510 1.500E-01 1.000 F -0.224 -0.412 +30° 07' 01.80" 1.000E-01 1.000 F 0.197 -0.516 16.2 0.70 -1.48 o D19 0.66 Yes Yes
2012QE50 O C 2012-09-15.84168 1.000E-05 00:53:18.340 1.500E-01 1.000 F -0.224 1.572 +30° 07' 02.90" 1.000E-01 1.000 F 0.197 0.994 16.0 0.70 -1.68 o D19 1.86 Yes Yes
2012QE50 O C 2012-09-16.60578 1.000E-05 00:57:15.030 1.500E-01 1.118 F -0.173 0.641 +30° 07' 11.60" 1.000E-01 1.118 F 0.246 0.176 16.8 0.70 -0.81 o D19 0.60 Yes Yes
2012QP17 O C 2012-09-16.60902 1.000E-05 23:58:55.870 1.500E-01 1.118 F -0.120 0.391 -07° 53' 22.50" 1.000E-01 1.118 F 0.180 -1.041 16.5 V 0.70 -1.49 o D19 1.00 Yes Yes
2012LU7 O C 2012-09-16.61735 1.000E-05 22:39:29.770 1.500E-01 1.000 F -0.110 -0.807 -32° 05' 09.70" 1.000E-01 1.000 F 0.491 1.085 15.3 V 0.70 -0.90 o D19 1.36 Yes Yes
2012QE50 O C 2012-09-16.62767 1.000E-05 00:57:21.420 1.500E-01 1.118 F -0.173 -0.229 +30° 07' 13.10" 1.000E-01 1.118 F 0.246 0.093 17.4 0.70 -0.21 o D19 0.22 Yes Yes
2012QP17 O C 2012-09-16.63089 1.000E-05 23:58:55.790 1.500E-01 1.118 F -0.120 -1.418 -07° 54' 11.60" 1.000E-01 1.118 F 0.180 0.276 16.8 V 0.70 -1.19 o D19 1.30 Yes Yes
2012QE50 O C 2012-09-16.65311 1.000E-05 00:57:28.940 1.500E-01 1.118 F -0.173 0.499 +30° 07' 14.30" 1.000E-01 1.118 F 0.246 -0.051 17.4 0.70 -0.21 o D19 0.45 Yes Yes
2012QP17 O C 2012-09-16.65653 1.000E-05 23:58:55.940 1.500E-01 1.118 F -0.120 0.259 -07° 55' 12.00" 1.000E-01 1.118 F 0.180 -1.028 16.8 V 0.70 -1.19 o D19 0.95 Yes Yes
2012LU7 O C 2012-09-16.66168 1.000E-05 22:39:49.950 1.500E-01 1.000 F -0.110 0.036 -32° 05' 39.70" 1.000E-01 1.000 F 0.491 0.620 16.1 V 0.70 -0.10 o D19 0.62 Yes Yes
2012QE50 O C 2012-09-16.66532 1.000E-05 00:57:32.510 1.500E-01 1.118 F -0.173 0.496 +30° 07' 15.10" 1.000E-01 1.118 F 0.246 0.308 17.6 0.70 -0.01 o D19 0.52 Yes Yes
2012QP17 O C 2012-09-16.66898 1.000E-05 23:58:55.940 1.500E-01 1.118 F -0.120 0.039 -07° 55' 39.90" 1.000E-01 1.118 F 0.180 -0.238 16.6 V 0.70 -1.39 o D19 0.22 Yes Yes
2012QE50 O C 2012-09-16.67569 1.000E-05 00:57:35.510 1.500E-01 1.118 F -0.173 0.140 +30° 07' 15.10" 1.000E-01 1.118 F 0.246 0.044 17.5 0.70 -0.11 o D19 0.13 Yes Yes
2012QP17 O C 2012-09-16.68053 1.000E-05 23:58:55.930 1.500E-01 1.118 F -0.120 -0.297 -07° 56' 06.80" 1.000E-01 1.118 F 0.180 -0.527 16.8 V 0.70 -1.19 o D19 0.54 Yes Yes
2012LU7 O C 2012-09-16.71093 1.000E-05 22:40:12.210 1.500E-01 1.000 F -0.110 -1.435 -32° 06' 09.90" 1.000E-01 1.000 F 0.491 0.077 15.8 V 0.70 -0.40 o D19 1.45 Yes Yes
2012QP17 O C 2012-09-17.64186 1.000E-05 23:59:04.810 1.500E-01 1.000 F -0.075 -0.734 -08° 33' 33.80" 1.000E-01 1.000 F 0.135 -0.413 16.3 V 0.70 -1.65 o D19 0.84 Yes Yes
2012PG5 O C 2012-09-17.64484 1.000E-05 23:52:16.400 1.500E-01 1.000 F -0.276 0.188 -26° 38' 14.20" 1.000E-01 1.000 F 0.337 2.905 16.3 V 0.70 -0.96 o D19 2.93 Yes Yes
2012QP17 O C 2012-09-17.66157 1.000E-05 23:59:04.810 1.500E-01 1.000 F -0.075 -1.018 -08° 34' 20.60" 1.000E-01 1.000 F 0.135 -0.349 16.2 V 0.70 -1.75 o D19 1.08 Yes Yes
2012PG5 O C 2012-09-17.66412 1.000E-05 23:52:20.070 1.500E-01 1.000 F -0.276 -1.485 -26° 39' 21.60" 1.000E-01 1.000 F 0.337 -0.047 16.3 V 0.70 -0.96 o D19 1.49 Yes Yes
2012LU7 O C 2012-09-17.66780 1.000E-05 22:47:46.350 1.500E-01 1.000 F -0.109 0.228 -32° 15' 06.80" 1.000E-01 1.000 F 0.428 0.852 16.0 V 0.70 -0.25 o D19 0.89 Yes Yes
2012LU7 O C 2012-09-17.69220 1.000E-05 22:47:57.110 1.500E-01 1.000 F -0.109 1.007 -32° 15' 18.50" 1.000E-01 1.000 F 0.428 -0.620 15.5 V 0.70 -0.75 o D19 1.19 Yes Yes

[1-28]